Terminal Aerodrome Forecast
Issued by NWS

Home | Current Version | Previous Version | Graphics & Text | Print | Product List | Glossary On
Versions: 1 2 3 4 5 6 7 8 9 10 11 12 13 14 15 16 17 18 19 20 21 22
598
FTUS41 KCLE 082338
TAFFDY
TAF
KFDY 082338Z 0900/0924 22008KT P6SM SCT250
     FM091600 22010KT 6SM -SN BKN025 OVC035
     FM091800 23010KT 2SM -SN BKN015 OVC025
     FM092300 29012KT P6SM OVC015=

USA.gov is the U.S. government's official web portal to all federal, state and local government web resources and services.